Station: Gove Airport  

  Atmospheric Gas Attenuation - ITU Rec 676-11   ----------------- dB/100km -----------------
Date Time Temp RH % AH g/m3 Dew Point Wind Direction Speed kph Gust kph Barometer mB Rainfall Since 9am 24GHz 47GHz 76GHz 122GHz 134GHz 241GHz
08/05 17:40 27.3 78 20.41 23.1 24 26 1010.3 0 43.7 41.5 81.3 215.1 238.9 830.3
08/05 17:30 27.5 77 20.37 23.1 26 35 1010.1 0 43.6 41.3 80.8 214.0 237.7 825.9
08/05 17:20 27.8 75 20.17 23 26 35 1010.1 0 43.2 40.8 79.6 210.7 233.6 812.0
08/05 17:10 28.1 74 20.24 23 28 30 1009.9 0 43.3 40.7 79.6 210.7 233.7 812.4
08/05 17:00 28.2 74 20.35 23.1 28 39 1009.8 0 43.5 40.9 80.0 211.7 235.1 817.1
08/05 16:50 28.4 73 20.29 23.1 28 32 1009.8 0 43.3 40.7 79.5 210.4 233.6 811.7
08/05 16:40 27.9 74 20.02 22.8 26 32 1009.8 0 42.8 40.4 78.8 208.5 231.0 802.8
08/05 16:30 28.2 72 19.8 22.7 28 37 1009.7 0 42.3 39.9 77.4 204.9 226.8 788.1
08/05 16:20 28.2 72 19.8 22.7 30 33 1009.6 0 42.3 39.9 77.4 204.9 226.7 788.0
08/05 16:10 28.7 70 19.78 22.7 30 33 1009.5 0 42.2 39.6 76.8 203.3 224.9 781.8
08/05 16:00 28.2 71 19.52 22.4 30 41 1009.5 0 41.7 39.3 76.1 201.5 222.5 773.4
08/05 15:50 28.8 71 20.17 23 26 30 1009.3 0 43.1 40.2 78.5 207.8 230.4 800.9
08/05 15:40 29.1 68 19.64 22.6 32 33 1009.3 0 41.9 39.1 75.8 200.5 221.6 770.4
08/05 15:30 29.2 69 20.04 22.9 30 41 1009.3 0 42.7 39.8 77.5 205.1 227.3 790.0
08/05 15:20 29.1 72 20.8 23.5 26 30 1009.2 0 44.3 41.3 81.1 214.7 239.0 830.7
08/05 15:10 28.1 74 20.24 23.2 26 30 1009.4 0 43.3 40.7 79.6 210.6 233.7 812.1
08/05 15:00 29.1 71 20.51 23.3 28 35 1009.3 0 43.7 40.7 79.8 211.1 234.6 815.5
08/05 14:50 29.1 72 20.8 23.5 30 35 1009.4 0 44.3 41.3 81.1 214.7 239.0 830.8
08/05 14:40 29.3 68 19.86 22.8 30 35 1009.4 0 42.3 39.4 76.6 202.7 224.3 779.7
08/05 14:30 28.7 71 20.06 23.1 30 46 1009.4 0 42.8 40.1 78.1 206.7 229.1 796.3
08/05 14:20 29.4 69 20.26 23.1 35 39 1009.5 0 43.2 40.1 78.3 207.3 230.0 799.4
08/05 14:10 29.1 71 20.51 23.3 26 30 1009.5 0 43.7 40.7 79.8 211.2 234.6 815.6
08/05 14:00 29 68 19.53 22.5 30 39 1009.5 0 41.7 39.0 75.4 199.5 220.3 765.8
08/05 13:50 29.2 68 19.75 22.7 35 39 1009.5 0 42.1 39.3 76.2 201.6 223.0 775.1
08/05 13:40 29 69 19.82 22.7 32 35 1009.6 0 42.3 39.5 76.7 203.0 224.6 780.8
08/05 13:30 29.9 63 19.01 22.3 28 37 1009.7 0 40.5 37.7 72.2 191.1 210.2 730.8
08/05 13:20 29.9 63 19.01 22.3 26 30 1009.8 0 40.5 37.7 72.2 191.1 210.2 730.9
08/05 13:10 29 68 19.53 22.5 33 37 1009.9 0 41.7 39.0 75.4 199.6 220.4 766.0
08/05 13:00 29.1 66 19.06 22.1 33 43 1010 0 40.7 38.1 73.2 193.7 213.2 741.2
08/05 12:50 29.5 67 19.78 22.7 32 39 1010.1 0 42.1 39.2 76.1 201.3 222.6 773.9
08/05 12:40 29.5 68 20.07 23 32 39 1010.3 0 42.8 39.8 77.4 204.8 227.0 789.0
08/05 12:30 29.5 68 20.07 23 28 39 1010.3 0 42.8 39.8 77.4 204.8 227.0 789.0
08/05 12:20 29.5 67 19.78 22.7 30 33 1010.4 0 42.1 39.2 76.1 201.4 222.7 774.1
08/05 12:10 29.9 67 20.21 23.1 28 30 1010.5 0 43.0 39.8 77.6 205.5 227.9 792.1
08/05 12:00 29.1 66 19.06 22.3 32 41 1010.7 0 40.7 38.1 73.3 193.8 213.3 741.5
08/05 11:50 29.5 68 20.07 23 24 30 1010.9 0 42.8 39.8 77.4 204.9 227.1 789.3
08/05 11:40 29.3 67 19.56 22.5 32 37 1011 0 41.7 39.0 75.3 199.3 220.1 765.2
08/05 11:30 30.4 65 20.15 23.1 30 43 1011.2 0 42.8 39.5 76.9 203.5 225.6 784.3
08/05 11:20 29.6 65 19.29 22.3 32 43 1011.2 0 41.1 38.3 73.8 195.4 215.3 748.6
08/05 11:10 28.7 67 18.93 22 35 39 1011.4 0 40.4 38.1 73.1 193.4 212.7 739.1
08/05 11:00 28.9 67 19.14 22.2 33 46 1011.5 0 40.9 38.4 73.9 195.4 215.2 747.9
08/05 10:50 29.3 67 19.56 22.5 30 37 1011.7 0 41.7 39.0 75.4 199.4 220.2 765.5
08/05 10:40 29.4 67 19.67 22.6 33 39 1011.7 0 41.9 39.1 75.8 200.5 221.6 770.2
08/05 10:30 28.9 66 18.86 21.9 33 44 1011.7 0 40.3 37.9 72.6 192.1 211.1 733.8
08/05 10:20 29.6 66 19.59 22.6 26 33 1011.8 0 41.7 38.9 75.2 199.0 219.8 764.1
08/05 10:10 29.1 64 18.49 21.8 28 33 1011.9 0 39.5 37.2 70.8 187.3 205.3 713.4
08/05 10:00 29.9 66 19.91 22.9 30 37 1011.9 0 42.4 39.4 76.4 202.1 223.6 777.5
08/05 09:50 30.1 65 19.82 23 24 30 1011.9 0 42.2 39.1 75.8 200.5 221.7 770.9
08/05 09:40 29.1 68 19.64 22.6 33 37 1011.8 0 41.9 39.2 75.9 200.9 222.0 771.7
08/05 09:30 29.2 66 19.17 22.4 32 39 1011.8 0 40.9 38.3 73.7 195.1 214.8 746.7
08/05 09:20 29.5 67 19.78 22.7 26 32 1011.9 0 42.1 39.3 76.2 201.6 222.9 774.9
08/05 09:10 29 70 20.11 23 24 28 1011.9 0 42.9 40.1 78.2 206.9 229.3 797.1
08/05 09:00 28.9 70 20 22.9 28 39 1011.9 0 42.7 40.0 77.8 205.8 228.0 792.4
08/05 08:50 28.8 71 20.17 23.2 24 28 1011.9 0.2 43.0 40.4 78.7 208.2 230.8 802.3
08/05 08:40 28.5 73 20.41 23.2 24 28 1011.9 0.2 43.6 40.9 80.1 212.0 235.4 818.1
08/05 08:30 28.2 75 20.62 23.3 24 33 1011.9 0.2 44.0 41.5 81.4 215.4 239.6 832.6
08/05 08:20 28.3 76 21.01 23.7 22 28 1011.8 0.2 44.9 42.2 83.1 220.0 245.2 852.3
08/05 08:10 27.9 78 21.1 23.7 19 20 1011.7 0.2 45.1 42.5 84.0 222.3 247.9 861.6
08/05 08:00 27.6 78 20.75 23.4 19 26 1011.7 0.2 44.4 42.0 82.6 218.8 243.5 846.1
08/05 07:50 27.5 78 20.64 23.3 20 22 1011.8 0.2 44.2 41.9 82.2 217.7 242.1 841.3
08/05 07:40 27.2 79 20.56 23.2 19 20 1011.8 0.2 44.0 41.9 82.2 217.5 241.8 840.4
08/05 07:30 26.7 81 20.5 23.2 17 20 1011.7 0.2 44.0 42.0 82.4 218.2 242.5 842.6
08/05 07:20 26.4 81 20.16 22.9 19 20 1011.6 0.2 43.3 41.5 81.1 214.7 238.2 827.5
08/05 07:10 25.9 83 20.09 22.8 15 17 1011.5 0.2 43.2 41.6 81.3 215.2 238.7 829.1
08/05 07:00 25.5 84 19.89 22.6 11 15 1011.5 0.2 42.8 41.4 80.8 213.8 236.8 822.6
08/05 06:50 25.3 84 19.66 22.4 11 15 1011.3 0.2 42.3 41.1 79.9 211.4 233.8 812.2
08/05 06:40 25.1 84 19.45 22.2 13 13 1011.3 0.2 41.9 40.8 79.1 209.3 231.1 802.9
08/05 06:30 25.2 83 19.32 22.1 15 20 1011.2 0.2 41.6 40.5 78.4 207.4 228.8 794.8
08/05 06:20 25 84 19.34 22.1 15 22 1011 0.2 41.7 40.6 78.7 208.1 229.7 797.9
08/05 06:10 25 83 19.11 21.9 13 15 1011 0.2 41.2 40.2 77.6 205.2 226.1 785.4
08/05 06:00 24.9 84 19.23 22 13 17 1010.9 0.2 41.5 40.4 78.2 207.0 228.3 792.9
08/05 05:50 24.7 84 19.01 21.8 13 15 1010.8 0.2 41.0 40.1 77.4 204.7 225.5 783.1
08/05 05:40 24.7 84 19.01 21.8 13 15 1010.8 0.2 41.0 40.1 77.4 204.7 225.5 783.1
08/05 05:30 24.7 85 19.24 22 13 17 1010.8 0.2 41.5 40.5 78.5 207.7 229.0 795.5
08/05 05:20 24.8 84 19.12 21.9 15 17 1010.7 0.2 41.3 40.3 77.8 205.8 226.8 787.9
08/05 05:10 24.7 85 19.24 22 13 15 1010.7 0.2 41.5 40.5 78.5 207.6 229.0 795.4
08/05 05:00 24.8 84 19.12 21.9 13 17 1010.7 0.2 41.3 40.3 77.8 205.8 226.8 787.9
08/05 04:50 24.6 85 19.13 21.9 11 13 1010.7 0.2 41.3 40.4 78.1 206.5 227.6 790.5
08/05 04:40 24.7 84 19.01 21.8 11 13 1010.7 0.2 41.0 40.1 77.4 204.7 225.4 783.0
08/05 04:30 24.7 84 19.01 21.8 13 17 1010.6 0.2 41.0 40.1 77.4 204.7 225.4 783.0
08/05 04:20 24.8 84 19.12 21.9 13 13 1010.6 0.2 41.3 40.3 77.8 205.8 226.8 787.9
08/05 04:10 24.6 85 19.13 21.9 13 13 1010.5 0.2 41.3 40.4 78.0 206.5 227.6 790.4
08/05 04:00 24.7 85 19.24 22 13 17 1010.6 0.2 41.5 40.5 78.5 207.6 229.0 795.4
08/05 03:50 24.8 85 19.35 22.1 11 13 1010.6 0.2 41.7 40.7 78.9 208.8 230.4 800.3
08/05 03:40 24.8 85 19.35 22.1 15 17 1010.7 0.2 41.7 40.7 78.9 208.8 230.4 800.4
08/05 03:30 24.9 85 19.46 22.2 15 20 1010.7 0.2 42.0 40.9 79.3 209.9 231.8 805.3
08/05 03:20 25 85 19.57 22.3 15 17 1010.7 0.2 42.2 41.0 79.7 211.0 233.2 810.2
08/05 03:10 25.2 84 19.55 22.3 17 20 1010.9 0.2 42.1 40.9 79.4 210.2 232.3 807.0
08/05 03:00 25.2 84 19.55 22.3 17 20 1010.9 0.2 42.1 40.9 79.4 210.2 232.3 807.0
08/05 02:50 25.2 84 19.55 22.3 17 17 1011 0.2 42.1 40.9 79.5 210.2 232.3 807.1
08/05 02:40 25.2 84 19.55 22.3 15 15 1011.1 0.2 42.1 40.9 79.5 210.3 232.4 807.2
08/05 02:30 25.3 84 19.66 22.4 17 20 1011 0.2 42.3 41.1 79.9 211.4 233.8 812.0
08/05 02:20 25.6 82 19.52 22.3 19 22 1011.1 0.2 42.0 40.6 78.9 208.8 230.7 801.3
08/05 02:10 25.4 83 19.54 22.3 17 19 1011.2 0.2 42.1 40.8 79.2 209.6 231.6 804.5
08/05 02:00 25.5 83 19.65 22.4 17 22 1011.4 0.2 42.3 41.0 79.6 210.7 233.0 809.5
08/05 01:50 25.5 83 19.65 22.4 19 20 1011.5 0.2 42.3 41.0 79.6 210.8 233.0 809.6
08/05 01:40 25.4 84 19.78 22.5 17 19 1011.5 0.2 42.6 41.3 80.4 212.7 235.4 817.7
08/05 01:30 25.5 83 19.65 22.4 20 28 1011.4 0.2 42.3 41.0 79.6 210.7 233.0 809.5
08/05 01:20 25.6 83 19.76 22.5 20 24 1011.5 0.2 42.5 41.1 80.1 211.9 234.4 814.5
08/05 01:10 25.6 83 19.76 22.5 19 22 1011.6 0.2 42.5 41.1 80.1 211.9 234.5 814.5

Last Refresh: 08-May-2026 17:43:59

Bureau of Meteorology